GCLA/SPC METAR and TAF weather

Enter ICAO airport designator
Station Type Date Time Source
GCLA METAR 2021/09/23 18:30 UTC NOAA

GCLA 231830Z 02011KT 350V060 9999 VCVA FEW035TCU SCT070 24/18 Q1015


Station Type Date Time Source
GCLA Decoded METAR 2021/09/23 18:30 UTC NOAA

La Palma / Aeropuerto, Spain (GCLA) 28-37N 017-45W 31M
Sep 23, 2021 - 02:30 PM EDT / 2021.09.23 1830 UTC
Wind: from the NNE (020 degrees) at 13 MPH (11 KT) (direction variable):0
Visibility: greater than 7 mile(s):0
Sky conditions: partly cloudy
Weather: volcanic ash in the vicinity; Towering cumulus clouds observed
Temperature: 75 F (24 C)
Dew Point: 64 F (18 C)
Relative Humidity: 69%
Pressure (altimeter): 29.97 in. Hg (1015 hPa)
ob: GCLA 231830Z 02011KT 350V060 9999 VCVA FEW035TCU SCT070 24/18 Q1015
cycle: 18

Station Type Date Time Source
GCLA TAF 2021/09/23 15:27 UTC NOAA

TAF GCLA 231400Z 2315/2415 02010KT 9999 SCT040 TX26/2315Z TN21/2406Z
BECMG 2321/2323 32008KT

Example: see airport list